sensor_id;sensor_type;location;lat;lon;timestamp;P1;durP1;ratioP1;P2;durP2;ratioP2
53145;SDS011;39042;53.150;5.898;2023-12-29T00:01:57;25.98;;;3.72;;
53145;SDS011;39042;53.150;5.898;2023-12-29T00:04:25;26.00;;;3.85;;
53145;SDS011;39042;53.150;5.898;2023-12-29T00:06:51;24.63;;;3.72;;
53145;SDS011;39042;53.150;5.898;2023-12-29T00:09:17;16.07;;;2.50;;
53145;SDS011;39042;53.150;5.898;2023-12-29T00:11:46;20.42;;;2.40;;
53145;SDS011;39042;53.150;5.898;2023-12-29T00:14:13;16.42;;;2.67;;
53145;SDS011;39042;53.150;5.898;2023-12-29T00:16:39;20.10;;;2.63;;
53145;SDS011;39042;53.150;5.898;2023-12-29T00:19:05;16.35;;;2.42;;
53145;SDS011;39042;53.150;5.898;2023-12-29T00:21:31;25.10;;;3.40;;
53145;SDS011;39042;53.150;5.898;2023-12-29T00:23:57;23.95;;;3.22;;
53145;SDS011;39042;53.150;5.898;2023-12-29T00:26:23;20.30;;;3.03;;
53145;SDS011;39042;53.150;5.898;2023-12-29T00:28:55;17.50;;;3.28;;
53145;SDS011;39042;53.150;5.898;2023-12-29T00:31:21;21.23;;;2.97;;
53145;SDS011;39042;53.150;5.898;2023-12-29T00:33:47;26.53;;;3.10;;
53145;SDS011;39042;53.150;5.898;2023-12-29T00:36:14;20.80;;;2.65;;
53145;SDS011;39042;53.150;5.898;2023-12-29T00:38:41;21.52;;;3.33;;
53145;SDS011;39042;53.150;5.898;2023-12-29T00:41:07;18.75;;;2.47;;
53145;SDS011;39042;53.150;5.898;2023-12-29T00:43:33;22.97;;;3.43;;
53145;SDS011;39042;53.150;5.898;2023-12-29T00:46:00;28.73;;;4.17;;
53145;SDS011;39042;53.150;5.898;2023-12-29T00:48:30;19.33;;;3.20;;
53145;SDS011;39042;53.150;5.898;2023-12-29T00:53:23;27.85;;;3.45;;
53145;SDS011;39042;53.150;5.898;2023-12-29T00:55:49;26.35;;;3.55;;
53145;SDS011;39042;53.150;5.898;2023-12-29T00:58:14;24.50;;;3.60;;
53145;SDS011;39042;53.150;5.898;2023-12-29T01:00:40;21.13;;;4.20;;
53145;SDS011;39042;53.150;5.898;2023-12-29T01:03:06;22.97;;;3.07;;
53145;SDS011;39042;53.150;5.898;2023-12-29T01:05:32;19.97;;;3.33;;
53145;SDS011;39042;53.150;5.898;2023-12-29T01:07:58;25.77;;;3.33;;
53145;SDS011;39042;53.150;5.898;2023-12-29T01:10:24;34.73;;;4.83;;
53145;SDS011;39042;53.150;5.898;2023-12-29T01:12:49;28.93;;;3.53;;
53145;SDS011;39042;53.150;5.898;2023-12-29T01:15:15;22.80;;;3.67;;
53145;SDS011;39042;53.150;5.898;2023-12-29T01:17:41;19.40;;;3.57;;
53145;SDS011;39042;53.150;5.898;2023-12-29T01:20:07;27.27;;;3.53;;
53145;SDS011;39042;53.150;5.898;2023-12-29T01:22:33;28.30;;;4.07;;
53145;SDS011;39042;53.150;5.898;2023-12-29T01:24:59;28.57;;;5.00;;
53145;SDS011;39042;53.150;5.898;2023-12-29T01:27:26;32.35;;;3.97;;
53145;SDS011;39042;53.150;5.898;2023-12-29T01:29:52;29.10;;;3.60;;
53145;SDS011;39042;53.150;5.898;2023-12-29T01:32:21;23.65;;;3.63;;
53145;SDS011;39042;53.150;5.898;2023-12-29T01:34:48;22.30;;;3.75;;
53145;SDS011;39042;53.150;5.898;2023-12-29T01:37:14;24.75;;;3.45;;
53145;SDS011;39042;53.150;5.898;2023-12-29T01:39:39;25.00;;;2.77;;
53145;SDS011;39042;53.150;5.898;2023-12-29T01:42:05;23.40;;;2.30;;
53145;SDS011;39042;53.150;5.898;2023-12-29T01:44:32;19.98;;;2.85;;
53145;SDS011;39042;53.150;5.898;2023-12-29T01:47:01;14.48;;;2.22;;
53145;SDS011;39042;53.150;5.898;2023-12-29T01:49:31;14.13;;;1.88;;
53145;SDS011;39042;53.150;5.898;2023-12-29T01:51:59;10.20;;;1.75;;
53145;SDS011;39042;53.150;5.898;2023-12-29T01:54:27;13.90;;;2.00;;
53145;SDS011;39042;53.150;5.898;2023-12-29T01:56:58;11.38;;;2.20;;
53145;SDS011;39042;53.150;5.898;2023-12-29T01:59:25;11.90;;;1.70;;
53145;SDS011;39042;53.150;5.898;2023-12-29T02:01:53;14.95;;;1.45;;
53145;SDS011;39042;53.150;5.898;2023-12-29T02:04:26;14.20;;;2.10;;
53145;SDS011;39042;53.150;5.898;2023-12-29T02:06:52;14.10;;;2.30;;
53145;SDS011;39042;53.150;5.898;2023-12-29T02:09:19;16.00;;;2.10;;
53145;SDS011;39042;53.150;5.898;2023-12-29T02:11:45;13.27;;;2.17;;
53145;SDS011;39042;53.150;5.898;2023-12-29T02:14:12;12.65;;;1.63;;
53145;SDS011;39042;53.150;5.898;2023-12-29T02:22:14;18.35;;;2.03;;
53145;SDS011;39042;53.150;5.898;2023-12-29T02:24:43;18.17;;;1.70;;
53145;SDS011;39042;53.150;5.898;2023-12-29T02:27:31;10.63;;;1.83;;
53145;SDS011;39042;53.150;5.898;2023-12-29T02:30:10;21.15;;;2.83;;
53145;SDS011;39042;53.150;5.898;2023-12-29T02:32:52;19.55;;;2.47;;
53145;SDS011;39042;53.150;5.898;2023-12-29T02:35:24;30.70;;;3.08;;
53145;SDS011;39042;53.150;5.898;2023-12-29T02:37:53;22.45;;;2.90;;
53145;SDS011;39042;53.150;5.898;2023-12-29T02:40:20;26.75;;;3.92;;
53145;SDS011;39042;53.150;5.898;2023-12-29T02:42:48;26.38;;;3.80;;
53145;SDS011;39042;53.150;5.898;2023-12-29T02:45:15;24.10;;;3.60;;
53145;SDS011;39042;53.150;5.898;2023-12-29T02:47:41;22.27;;;3.50;;
53145;SDS011;39042;53.150;5.898;2023-12-29T02:50:07;30.88;;;4.95;;
53145;SDS011;39042;53.150;5.898;2023-12-29T02:52:34;28.77;;;5.35;;
53145;SDS011;39042;53.150;5.898;2023-12-29T02:54:59;35.20;;;5.43;;
53145;SDS011;39042;53.150;5.898;2023-12-29T02:57:25;35.50;;;4.27;;
53145;SDS011;39042;53.150;5.898;2023-12-29T02:59:51;30.10;;;4.33;;
53145;SDS011;39042;53.150;5.898;2023-12-29T03:02:17;32.10;;;4.57;;
53145;SDS011;39042;53.150;5.898;2023-12-29T03:04:43;34.63;;;5.22;;
53145;SDS011;39042;53.150;5.898;2023-12-29T03:07:09;37.50;;;4.83;;
53145;SDS011;39042;53.150;5.898;2023-12-29T03:09:35;37.78;;;4.88;;
53145;SDS011;39042;53.150;5.898;2023-12-29T03:12:01;31.87;;;4.70;;
53145;SDS011;39042;53.150;5.898;2023-12-29T03:14:26;31.37;;;4.43;;
53145;SDS011;39042;53.150;5.898;2023-12-29T03:16:52;30.80;;;4.47;;
53145;SDS011;39042;53.150;5.898;2023-12-29T03:19:18;31.57;;;4.30;;
53145;SDS011;39042;53.150;5.898;2023-12-29T03:21:44;28.73;;;4.17;;
53145;SDS011;39042;53.150;5.898;2023-12-29T03:24:10;36.23;;;5.57;;
53145;SDS011;39042;53.150;5.898;2023-12-29T03:26:35;25.40;;;3.87;;
53145;SDS011;39042;53.150;5.898;2023-12-29T03:29:03;23.67;;;4.45;;
53145;SDS011;39042;53.150;5.898;2023-12-29T03:31:29;28.02;;;3.97;;
53145;SDS011;39042;53.150;5.898;2023-12-29T03:33:55;22.67;;;3.27;;
53145;SDS011;39042;53.150;5.898;2023-12-29T03:36:21;25.67;;;4.17;;
53145;SDS011;39042;53.150;5.898;2023-12-29T03:38:47;21.33;;;3.37;;
53145;SDS011;39042;53.150;5.898;2023-12-29T03:41:13;16.60;;;2.30;;
53145;SDS011;39042;53.150;5.898;2023-12-29T03:43:39;23.85;;;3.40;;
53145;SDS011;39042;53.150;5.898;2023-12-29T03:46:15;26.53;;;3.60;;
53145;SDS011;39042;53.150;5.898;2023-12-29T03:48:44;23.15;;;2.92;;
53145;SDS011;39042;53.150;5.898;2023-12-29T03:51:11;22.40;;;2.90;;
53145;SDS011;39042;53.150;5.898;2023-12-29T03:53:37;22.63;;;3.85;;
53145;SDS011;39042;53.150;5.898;2023-12-29T03:56:06;19.63;;;2.47;;
53145;SDS011;39042;53.150;5.898;2023-12-29T03:58:34;23.70;;;3.00;;
53145;SDS011;39042;53.150;5.898;2023-12-29T04:01:01;21.10;;;2.80;;
53145;SDS011;39042;53.150;5.898;2023-12-29T04:03:27;27.00;;;3.15;;
53145;SDS011;39042;53.150;5.898;2023-12-29T04:05:53;15.15;;;2.30;;
53145;SDS011;39042;53.150;5.898;2023-12-29T04:08:19;21.40;;;3.17;;
53145;SDS011;39042;53.150;5.898;2023-12-29T04:10:45;19.10;;;2.47;;
53145;SDS011;39042;53.150;5.898;2023-12-29T04:13:10;20.67;;;2.50;;
53145;SDS011;39042;53.150;5.898;2023-12-29T04:15:37;24.25;;;3.67;;
53145;SDS011;39042;53.150;5.898;2023-12-29T04:18:02;21.30;;;2.50;;
53145;SDS011;39042;53.150;5.898;2023-12-29T04:20:29;20.58;;;3.63;;
53145;SDS011;39042;53.150;5.898;2023-12-29T04:22:55;22.98;;;2.95;;
53145;SDS011;39042;53.150;5.898;2023-12-29T04:25:21;18.03;;;3.40;;
53145;SDS011;39042;53.150;5.898;2023-12-29T04:27:46;19.63;;;2.77;;
53145;SDS011;39042;53.150;5.898;2023-12-29T04:30:12;20.80;;;3.20;;
53145;SDS011;39042;53.150;5.898;2023-12-29T04:32:38;16.60;;;2.03;;
53145;SDS011;39042;53.150;5.898;2023-12-29T04:35:04;20.60;;;3.87;;
53145;SDS011;39042;53.150;5.898;2023-12-29T04:37:30;17.13;;;3.40;;
53145;SDS011;39042;53.150;5.898;2023-12-29T04:39:56;21.77;;;2.83;;
53145;SDS011;39042;53.150;5.898;2023-12-29T04:42:22;22.23;;;3.20;;
53145;SDS011;39042;53.150;5.898;2023-12-29T04:44:48;19.67;;;2.87;;
53145;SDS011;39042;53.150;5.898;2023-12-29T04:47:13;23.20;;;3.50;;
53145;SDS011;39042;53.150;5.898;2023-12-29T04:49:39;23.90;;;3.47;;
53145;SDS011;39042;53.150;5.898;2023-12-29T04:52:05;30.40;;;4.00;;
53145;SDS011;39042;53.150;5.898;2023-12-29T04:54:31;22.87;;;2.67;;
53145;SDS011;39042;53.150;5.898;2023-12-29T04:56:57;19.70;;;2.97;;
53145;SDS011;39042;53.150;5.898;2023-12-29T04:59:22;29.33;;;3.87;;
53145;SDS011;39042;53.150;5.898;2023-12-29T05:01:48;21.00;;;2.87;;
53145;SDS011;39042;53.150;5.898;2023-12-29T05:04:14;22.37;;;3.30;;
53145;SDS011;39042;53.150;5.898;2023-12-29T05:06:42;26.27;;;3.38;;
53145;SDS011;39042;53.150;5.898;2023-12-29T05:09:07;22.90;;;3.13;;
53145;SDS011;39042;53.150;5.898;2023-12-29T05:11:33;26.83;;;3.23;;
53145;SDS011;39042;53.150;5.898;2023-12-29T05:13:59;26.87;;;3.17;;
53145;SDS011;39042;53.150;5.898;2023-12-29T05:16:25;20.33;;;2.83;;
53145;SDS011;39042;53.150;5.898;2023-12-29T05:18:51;21.77;;;3.33;;
53145;SDS011;39042;53.150;5.898;2023-12-29T05:21:17;24.50;;;3.20;;
53145;SDS011;39042;53.150;5.898;2023-12-29T05:23:44;24.70;;;3.90;;
53145;SDS011;39042;53.150;5.898;2023-12-29T05:26:11;24.88;;;2.97;;
53145;SDS011;39042;53.150;5.898;2023-12-29T05:28:37;22.75;;;3.20;;
53145;SDS011;39042;53.150;5.898;2023-12-29T05:31:02;22.40;;;3.43;;
53145;SDS011;39042;53.150;5.898;2023-12-29T05:33:30;25.73;;;3.28;;
53145;SDS011;39042;53.150;5.898;2023-12-29T05:35:56;22.08;;;3.60;;
53145;SDS011;39042;53.150;5.898;2023-12-29T05:38:22;23.03;;;2.67;;
53145;SDS011;39042;53.150;5.898;2023-12-29T05:40:48;23.70;;;3.83;;
53145;SDS011;39042;53.150;5.898;2023-12-29T05:43:17;20.50;;;3.67;;
53145;SDS011;39042;53.150;5.898;2023-12-29T05:45:44;25.75;;;3.33;;
53145;SDS011;39042;53.150;5.898;2023-12-29T05:48:10;28.93;;;3.33;;
53145;SDS011;39042;53.150;5.898;2023-12-29T05:50:35;25.33;;;3.33;;
53145;SDS011;39042;53.150;5.898;2023-12-29T05:53:01;22.30;;;2.97;;
53145;SDS011;39042;53.150;5.898;2023-12-29T05:55:27;26.10;;;4.47;;
53145;SDS011;39042;53.150;5.898;2023-12-29T05:57:53;26.83;;;3.83;;
53145;SDS011;39042;53.150;5.898;2023-12-29T06:00:19;26.70;;;3.30;;
53145;SDS011;39042;53.150;5.898;2023-12-29T06:02:44;18.70;;;3.13;;
53145;SDS011;39042;53.150;5.898;2023-12-29T06:05:10;20.17;;;2.97;;
53145;SDS011;39042;53.150;5.898;2023-12-29T06:07:37;21.58;;;2.83;;
53145;SDS011;39042;53.150;5.898;2023-12-29T06:10:04;21.10;;;2.70;;
53145;SDS011;39042;53.150;5.898;2023-12-29T06:12:30;29.25;;;2.85;;
53145;SDS011;39042;53.150;5.898;2023-12-29T06:14:56;21.83;;;3.55;;
53145;SDS011;39042;53.150;5.898;2023-12-29T06:17:22;29.23;;;3.57;;
53145;SDS011;39042;53.150;5.898;2023-12-29T06:19:48;27.90;;;4.47;;
53145;SDS011;39042;53.150;5.898;2023-12-29T06:22:14;23.93;;;3.17;;
53145;SDS011;39042;53.150;5.898;2023-12-29T06:24:40;21.63;;;2.90;;
53145;SDS011;39042;53.150;5.898;2023-12-29T06:27:08;21.58;;;3.10;;
53145;SDS011;39042;53.150;5.898;2023-12-29T06:29:34;30.23;;;3.22;;
53145;SDS011;39042;53.150;5.898;2023-12-29T06:32:01;18.33;;;3.13;;
53145;SDS011;39042;53.150;5.898;2023-12-29T06:34:27;27.23;;;4.45;;
53145;SDS011;39042;53.150;5.898;2023-12-29T06:36:53;23.10;;;4.00;;
53145;SDS011;39042;53.150;5.898;2023-12-29T06:39:19;29.57;;;3.47;;
53145;SDS011;39042;53.150;5.898;2023-12-29T06:41:45;24.63;;;3.53;;
53145;SDS011;39042;53.150;5.898;2023-12-29T06:44:11;22.80;;;3.37;;
53145;SDS011;39042;53.150;5.898;2023-12-29T06:46:37;38.17;;;4.17;;
53145;SDS011;39042;53.150;5.898;2023-12-29T06:49:03;29.33;;;3.95;;
53145;SDS011;39042;53.150;5.898;2023-12-29T06:51:30;25.90;;;3.47;;
53145;SDS011;39042;53.150;5.898;2023-12-29T06:53:55;30.43;;;3.80;;
53145;SDS011;39042;53.150;5.898;2023-12-29T06:56:21;34.40;;;4.27;;
53145;SDS011;39042;53.150;5.898;2023-12-29T06:58:48;30.05;;;4.10;;
53145;SDS011;39042;53.150;5.898;2023-12-29T07:01:13;25.47;;;3.47;;
53145;SDS011;39042;53.150;5.898;2023-12-29T07:03:41;27.52;;;4.65;;
53145;SDS011;39042;53.150;5.898;2023-12-29T07:06:07;21.60;;;4.97;;
53145;SDS011;39042;53.150;5.898;2023-12-29T07:08:32;26.83;;;3.63;;
53145;SDS011;39042;53.150;5.898;2023-12-29T07:10:59;30.90;;;3.97;;
53145;SDS011;39042;53.150;5.898;2023-12-29T07:13:25;29.27;;;3.43;;
53145;SDS011;39042;53.150;5.898;2023-12-29T07:15:50;22.17;;;3.10;;
53145;SDS011;39042;53.150;5.898;2023-12-29T07:18:16;30.23;;;4.30;;
53145;SDS011;39042;53.150;5.898;2023-12-29T07:20:42;24.77;;;3.87;;
53145;SDS011;39042;53.150;5.898;2023-12-29T07:23:08;32.40;;;9.07;;
53145;SDS011;39042;53.150;5.898;2023-12-29T07:25:34;23.30;;;5.47;;
53145;SDS011;39042;53.150;5.898;2023-12-29T07:28:00;23.90;;;4.27;;
53145;SDS011;39042;53.150;5.898;2023-12-29T07:30:26;19.07;;;3.27;;
53145;SDS011;39042;53.150;5.898;2023-12-29T07:32:51;23.60;;;3.63;;
53145;SDS011;39042;53.150;5.898;2023-12-29T07:35:17;22.08;;;4.45;;
53145;SDS011;39042;53.150;5.898;2023-12-29T07:37:46;29.98;;;4.63;;
53145;SDS011;39042;53.150;5.898;2023-12-29T07:40:12;24.58;;;3.75;;
53145;SDS011;39042;53.150;5.898;2023-12-29T07:45:05;28.98;;;4.30;;
53145;SDS011;39042;53.150;5.898;2023-12-29T07:47:31;26.20;;;4.13;;
53145;SDS011;39042;53.150;5.898;2023-12-29T07:49:57;24.98;;;4.15;;
53145;SDS011;39042;53.150;5.898;2023-12-29T07:52:23;24.73;;;3.50;;
53145;SDS011;39042;53.150;5.898;2023-12-29T07:54:49;27.80;;;6.10;;
53145;SDS011;39042;53.150;5.898;2023-12-29T07:57:15;29.37;;;5.60;;
53145;SDS011;39042;53.150;5.898;2023-12-29T07:59:41;34.80;;;9.47;;
53145;SDS011;39042;53.150;5.898;2023-12-29T08:02:06;28.50;;;6.27;;
53145;SDS011;39042;53.150;5.898;2023-12-29T08:04:32;27.47;;;6.87;;
53145;SDS011;39042;53.150;5.898;2023-12-29T08:06:58;22.10;;;5.83;;
53145;SDS011;39042;53.150;5.898;2023-12-29T08:09:25;30.97;;;7.87;;
53145;SDS011;39042;53.150;5.898;2023-12-29T08:14:16;32.25;;;6.28;;
53145;SDS011;39042;53.150;5.898;2023-12-29T08:16:42;21.37;;;3.43;;
53145;SDS011;39042;53.150;5.898;2023-12-29T08:19:08;32.63;;;7.53;;
53145;SDS011;39042;53.150;5.898;2023-12-29T08:21:35;31.08;;;7.53;;
53145;SDS011;39042;53.150;5.898;2023-12-29T08:24:01;24.88;;;5.80;;
53145;SDS011;39042;53.150;5.898;2023-12-29T08:26:27;24.90;;;5.05;;
53145;SDS011;39042;53.150;5.898;2023-12-29T08:28:53;18.60;;;4.23;;
53145;SDS011;39042;53.150;5.898;2023-12-29T08:31:19;26.27;;;3.73;;
53145;SDS011;39042;53.150;5.898;2023-12-29T08:33:45;27.00;;;3.73;;
53145;SDS011;39042;53.150;5.898;2023-12-29T08:36:11;22.50;;;2.80;;
53145;SDS011;39042;53.150;5.898;2023-12-29T08:38:37;19.90;;;2.10;;
53145;SDS011;39042;53.150;5.898;2023-12-29T08:41:03;28.05;;;2.88;;
53145;SDS011;39042;53.150;5.898;2023-12-29T08:43:30;22.33;;;3.05;;
53145;SDS011;39042;53.150;5.898;2023-12-29T08:45:56;26.00;;;2.75;;
53145;SDS011;39042;53.150;5.898;2023-12-29T08:48:22;18.88;;;2.90;;
53145;SDS011;39042;53.150;5.898;2023-12-29T08:50:49;19.85;;;2.63;;
53145;SDS011;39042;53.150;5.898;2023-12-29T08:53:15;20.95;;;2.35;;
53145;SDS011;39042;53.150;5.898;2023-12-29T08:55:42;17.55;;;2.53;;
53145;SDS011;39042;53.150;5.898;2023-12-29T08:58:08;17.40;;;2.57;;
53145;SDS011;39042;53.150;5.898;2023-12-29T09:00:34;20.73;;;2.97;;
53145;SDS011;39042;53.150;5.898;2023-12-29T09:02:59;34.37;;;5.23;;
53145;SDS011;39042;53.150;5.898;2023-12-29T09:05:25;22.83;;;4.63;;
53145;SDS011;39042;53.150;5.898;2023-12-29T09:07:51;24.87;;;4.23;;
53145;SDS011;39042;53.150;5.898;2023-12-29T09:10:17;26.33;;;4.97;;
53145;SDS011;39042;53.150;5.898;2023-12-29T09:12:43;23.45;;;3.53;;
53145;SDS011;39042;53.150;5.898;2023-12-29T09:15:09;27.25;;;3.65;;
53145;SDS011;39042;53.150;5.898;2023-12-29T09:17:35;25.33;;;4.23;;
53145;SDS011;39042;53.150;5.898;2023-12-29T09:20:01;21.27;;;3.10;;
53145;SDS011;39042;53.150;5.898;2023-12-29T09:22:27;22.75;;;2.38;;
53145;SDS011;39042;53.150;5.898;2023-12-29T09:24:53;20.37;;;3.67;;
53145;SDS011;39042;53.150;5.898;2023-12-29T09:27:20;23.30;;;2.78;;
53145;SDS011;39042;53.150;5.898;2023-12-29T09:29:46;26.80;;;3.55;;
53145;SDS011;39042;53.150;5.898;2023-12-29T09:32:12;28.93;;;5.93;;
53145;SDS011;39042;53.150;5.898;2023-12-29T09:34:38;37.27;;;11.10;;
53145;SDS011;39042;53.150;5.898;2023-12-29T09:37:04;46.60;;;12.67;;
53145;SDS011;39042;53.150;5.898;2023-12-29T09:39:30;36.07;;;9.03;;
53145;SDS011;39042;53.150;5.898;2023-12-29T09:41:57;29.95;;;6.45;;
53145;SDS011;39042;53.150;5.898;2023-12-29T09:44:27;24.88;;;3.60;;
53145;SDS011;39042;53.150;5.898;2023-12-29T09:46:56;30.17;;;4.90;;
53145;SDS011;39042;53.150;5.898;2023-12-29T09:49:26;26.08;;;4.57;;
53145;SDS011;39042;53.150;5.898;2023-12-29T09:51:56;24.95;;;4.13;;
53145;SDS011;39042;53.150;5.898;2023-12-29T09:54:23;24.92;;;4.20;;
53145;SDS011;39042;53.150;5.898;2023-12-29T09:56:50;21.85;;;2.67;;
53145;SDS011;39042;53.150;5.898;2023-12-29T09:59:16;18.00;;;2.65;;
53145;SDS011;39042;53.150;5.898;2023-12-29T10:01:43;27.15;;;4.15;;
53145;SDS011;39042;53.150;5.898;2023-12-29T10:04:11;21.15;;;2.50;;
53145;SDS011;39042;53.150;5.898;2023-12-29T10:06:38;15.57;;;1.77;;
53145;SDS011;39042;53.150;5.898;2023-12-29T10:09:09;12.05;;;1.65;;
53145;SDS011;39042;53.150;5.898;2023-12-29T10:11:37;15.57;;;2.45;;
53145;SDS011;39042;53.150;5.898;2023-12-29T10:14:07;19.77;;;2.63;;
53145;SDS011;39042;53.150;5.898;2023-12-29T10:16:45;17.35;;;2.80;;
53145;SDS011;39042;53.150;5.898;2023-12-29T10:19:26;16.75;;;2.47;;
53145;SDS011;39042;53.150;5.898;2023-12-29T10:24:43;15.10;;;2.10;;
53145;SDS011;39042;53.150;5.898;2023-12-29T10:27:12;15.68;;;2.47;;
53145;SDS011;39042;53.150;5.898;2023-12-29T10:29:38;18.20;;;2.55;;
53145;SDS011;39042;53.150;5.898;2023-12-29T10:32:04;14.75;;;1.90;;
53145;SDS011;39042;53.150;5.898;2023-12-29T10:34:30;12.45;;;1.35;;
53145;SDS011;39042;53.150;5.898;2023-12-29T10:37:00;12.75;;;1.95;;
53145;SDS011;39042;53.150;5.898;2023-12-29T10:39:28;12.48;;;1.55;;
53145;SDS011;39042;53.150;5.898;2023-12-29T10:42:04;12.68;;;1.90;;
53145;SDS011;39042;53.150;5.898;2023-12-29T10:44:34;10.10;;;1.83;;
53145;SDS011;39042;53.150;5.898;2023-12-29T10:47:08;10.73;;;1.35;;
53145;SDS011;39042;53.150;5.898;2023-12-29T10:49:35;18.77;;;1.80;;
53145;SDS011;39042;53.150;5.898;2023-12-29T10:52:11;13.35;;;2.00;;
53145;SDS011;39042;53.150;5.898;2023-12-29T10:54:43;16.77;;;2.08;;
53145;SDS011;39042;53.150;5.898;2023-12-29T10:57:10;13.60;;;1.75;;
53145;SDS011;39042;53.150;5.898;2023-12-29T10:59:37;17.15;;;2.20;;
53145;SDS011;39042;53.150;5.898;2023-12-29T11:02:03;14.05;;;2.03;;
53145;SDS011;39042;53.150;5.898;2023-12-29T11:04:30;13.98;;;1.83;;
53145;SDS011;39042;53.150;5.898;2023-12-29T11:06:56;19.77;;;2.13;;
53145;SDS011;39042;53.150;5.898;2023-12-29T11:09:31;13.20;;;1.67;;
53145;SDS011;39042;53.150;5.898;2023-12-29T11:12:00;15.27;;;2.40;;
53145;SDS011;39042;53.150;5.898;2023-12-29T11:14:32;12.70;;;1.58;;
53145;SDS011;39042;53.150;5.898;2023-12-29T11:16:59;14.80;;;1.85;;
53145;SDS011;39042;53.150;5.898;2023-12-29T11:19:29;12.68;;;1.35;;
53145;SDS011;39042;53.150;5.898;2023-12-29T11:21:55;15.73;;;2.08;;
53145;SDS011;39042;53.150;5.898;2023-12-29T11:24:21;10.90;;;1.63;;
53145;SDS011;39042;53.150;5.898;2023-12-29T11:26:51;11.93;;;1.98;;
53145;SDS011;39042;53.150;5.898;2023-12-29T11:29:18;17.23;;;1.80;;
53145;SDS011;39042;53.150;5.898;2023-12-29T11:31:44;14.40;;;1.85;;
53145;SDS011;39042;53.150;5.898;2023-12-29T11:34:23;14.43;;;1.58;;
53145;SDS011;39042;53.150;5.898;2023-12-29T11:36:56;18.70;;;2.63;;
53145;SDS011;39042;53.150;5.898;2023-12-29T11:39:45;24.17;;;4.10;;
53145;SDS011;39042;53.150;5.898;2023-12-29T11:42:19;15.82;;;3.60;;
53145;SDS011;39042;53.150;5.898;2023-12-29T11:44:52;19.48;;;2.38;;
53145;SDS011;39042;53.150;5.898;2023-12-29T11:47:37;12.17;;;1.67;;
53145;SDS011;39042;53.150;5.898;2023-12-29T11:50:03;15.02;;;1.83;;
53145;SDS011;39042;53.150;5.898;2023-12-29T11:55:12;16.77;;;2.58;;
53145;SDS011;39042;53.150;5.898;2023-12-29T11:57:43;16.23;;;2.83;;
53145;SDS011;39042;53.150;5.898;2023-12-29T12:00:09;21.63;;;3.37;;
53145;SDS011;39042;53.150;5.898;2023-12-29T12:02:39;15.57;;;3.28;;
53145;SDS011;39042;53.150;5.898;2023-12-29T12:05:08;18.02;;;3.30;;
53145;SDS011;39042;53.150;5.898;2023-12-29T12:12:48;30.10;;;6.30;;
53145;SDS011;39042;53.150;5.898;2023-12-29T12:17:58;18.92;;;4.40;;
53145;SDS011;39042;53.150;5.898;2023-12-29T12:20:25;20.05;;;5.68;;
53145;SDS011;39042;53.150;5.898;2023-12-29T12:22:57;19.83;;;4.43;;
53145;SDS011;39042;53.150;5.898;2023-12-29T12:25:25;13.57;;;2.28;;
53145;SDS011;39042;53.150;5.898;2023-12-29T12:27:55;18.17;;;4.43;;
53145;SDS011;39042;53.150;5.898;2023-12-29T12:30:22;21.52;;;5.60;;
53145;SDS011;39042;53.150;5.898;2023-12-29T12:33:02;32.13;;;7.97;;
53145;SDS011;39042;53.150;5.898;2023-12-29T12:35:29;16.83;;;3.90;;
53145;SDS011;39042;53.150;5.898;2023-12-29T12:40:34;17.02;;;4.25;;
53145;SDS011;39042;53.150;5.898;2023-12-29T12:43:01;16.73;;;4.20;;
53145;SDS011;39042;53.150;5.898;2023-12-29T12:45:28;25.65;;;4.88;;
53145;SDS011;39042;53.150;5.898;2023-12-29T12:48:10;27.20;;;6.50;;
53145;SDS011;39042;53.150;5.898;2023-12-29T12:50:46;20.13;;;4.85;;
53145;SDS011;39042;53.150;5.898;2023-12-29T12:53:13;33.72;;;6.72;;
53145;SDS011;39042;53.150;5.898;2023-12-29T12:55:49;25.13;;;5.90;;
53145;SDS011;39042;53.150;5.898;2023-12-29T12:58:17;23.83;;;4.70;;
53145;SDS011;39042;53.150;5.898;2023-12-29T13:00:45;29.02;;;7.20;;
53145;SDS011;39042;53.150;5.898;2023-12-29T13:03:12;19.35;;;4.50;;
53145;SDS011;39042;53.150;5.898;2023-12-29T13:05:40;20.20;;;4.32;;
53145;SDS011;39042;53.150;5.898;2023-12-29T13:08:06;20.92;;;5.38;;
53145;SDS011;39042;53.150;5.898;2023-12-29T13:10:33;18.75;;;4.32;;
53145;SDS011;39042;53.150;5.898;2023-12-29T13:12:59;25.17;;;3.95;;
53145;SDS011;39042;53.150;5.898;2023-12-29T13:15:25;27.10;;;4.83;;
53145;SDS011;39042;53.150;5.898;2023-12-29T13:17:54;15.60;;;4.00;;
53145;SDS011;39042;53.150;5.898;2023-12-29T13:20:20;14.52;;;3.53;;
53145;SDS011;39042;53.150;5.898;2023-12-29T13:22:49;15.77;;;3.45;;
53145;SDS011;39042;53.150;5.898;2023-12-29T13:25:25;22.05;;;3.78;;
53145;SDS011;39042;53.150;5.898;2023-12-29T13:27:53;18.83;;;3.35;;
53145;SDS011;39042;53.150;5.898;2023-12-29T13:30:19;18.88;;;2.67;;
53145;SDS011;39042;53.150;5.898;2023-12-29T13:32:47;15.10;;;2.90;;
53145;SDS011;39042;53.150;5.898;2023-12-29T13:35:21;16.63;;;3.75;;
53145;SDS011;39042;53.150;5.898;2023-12-29T13:38:13;16.75;;;5.13;;
53145;SDS011;39042;53.150;5.898;2023-12-29T13:40:52;19.15;;;3.88;;
53145;SDS011;39042;53.150;5.898;2023-12-29T13:43:28;17.98;;;2.92;;
53145;SDS011;39042;53.150;5.898;2023-12-29T13:45:57;15.68;;;3.22;;
53145;SDS011;39042;53.150;5.898;2023-12-29T13:48:25;17.58;;;4.32;;
53145;SDS011;39042;53.150;5.898;2023-12-29T13:50:52;14.88;;;4.15;;
53145;SDS011;39042;53.150;5.898;2023-12-29T13:53:18;16.47;;;2.97;;
53145;SDS011;39042;53.150;5.898;2023-12-29T13:58:11;12.73;;;2.08;;
53145;SDS011;39042;53.150;5.898;2023-12-29T14:00:40;16.83;;;2.70;;
53145;SDS011;39042;53.150;5.898;2023-12-29T14:03:09;23.17;;;5.35;;
53145;SDS011;39042;53.150;5.898;2023-12-29T14:05:52;24.42;;;3.78;;
53145;SDS011;39042;53.150;5.898;2023-12-29T14:10:59;14.43;;;2.13;;
53145;SDS011;39042;53.150;5.898;2023-12-29T14:13:25;18.55;;;2.78;;
53145;SDS011;39042;53.150;5.898;2023-12-29T14:15:51;12.63;;;1.80;;
53145;SDS011;39042;53.150;5.898;2023-12-29T14:20:58;20.55;;;1.67;;
53145;SDS011;39042;53.150;5.898;2023-12-29T14:23:24;18.20;;;1.75;;
53145;SDS011;39042;53.150;5.898;2023-12-29T14:25:51;21.17;;;2.75;;
53145;SDS011;39042;53.150;5.898;2023-12-29T14:28:17;15.00;;;1.15;;
53145;SDS011;39042;53.150;5.898;2023-12-29T14:30:44;16.23;;;2.00;;
53145;SDS011;39042;53.150;5.898;2023-12-29T14:33:11;14.85;;;1.65;;
53145;SDS011;39042;53.150;5.898;2023-12-29T14:35:36;12.27;;;2.00;;
53145;SDS011;39042;53.150;5.898;2023-12-29T14:38:03;8.17;;;1.60;;
53145;SDS011;39042;53.150;5.898;2023-12-29T14:40:29;14.55;;;2.05;;
53145;SDS011;39042;53.150;5.898;2023-12-29T14:42:55;17.08;;;1.95;;
53145;SDS011;39042;53.150;5.898;2023-12-29T14:45:21;23.03;;;3.13;;
53145;SDS011;39042;53.150;5.898;2023-12-29T14:47:47;13.53;;;2.30;;
53145;SDS011;39042;53.150;5.898;2023-12-29T14:50:16;21.85;;;2.60;;
53145;SDS011;39042;53.150;5.898;2023-12-29T14:52:42;9.17;;;2.20;;
53145;SDS011;39042;53.150;5.898;2023-12-29T14:55:08;13.37;;;3.07;;
53145;SDS011;39042;53.150;5.898;2023-12-29T14:57:34;15.53;;;2.30;;
53145;SDS011;39042;53.150;5.898;2023-12-29T14:59:59;20.17;;;3.07;;
53145;SDS011;39042;53.150;5.898;2023-12-29T15:02:25;11.50;;;2.73;;
53145;SDS011;39042;53.150;5.898;2023-12-29T15:04:51;14.30;;;3.10;;
53145;SDS011;39042;53.150;5.898;2023-12-29T15:07:17;16.97;;;3.00;;
53145;SDS011;39042;53.150;5.898;2023-12-29T15:09:43;15.73;;;4.25;;
53145;SDS011;39042;53.150;5.898;2023-12-29T15:12:09;18.30;;;3.72;;